createdAt,value
2018-07-23T00:00:02.527Z,0
2018-07-23T00:01:02.781Z,0
2018-07-23T00:02:02.796Z,0
2018-07-23T00:03:02.796Z,0
2018-07-23T00:04:02.527Z,0
2018-07-23T00:05:02.766Z,0
2018-07-23T00:06:02.517Z,0
2018-07-23T00:07:02.519Z,0
2018-07-23T00:08:02.763Z,0
2018-07-23T00:09:02.249Z,0
2018-07-23T00:10:02.497Z,0
2018-07-23T00:11:02.764Z,0
2018-07-23T00:12:02.506Z,0
2018-07-23T00:13:02.745Z,0
2018-07-23T00:14:02.487Z,0
2018-07-23T00:15:02.238Z,0
2018-07-23T00:16:02.735Z,0
2018-07-23T00:17:02.732Z,0
2018-07-23T00:18:02.484Z,0
2018-07-23T00:19:02.222Z,0
2018-07-23T00:20:01.966Z,0
2018-07-23T00:21:02.472Z,0
2018-07-23T00:22:02.472Z,0
2018-07-23T00:23:02.719Z,0
2018-07-23T00:24:02.719Z,0
2018-07-23T00:25:02.210Z,0
2018-07-23T00:26:02.499Z,0
2018-07-23T00:27:02.707Z,0
2018-07-23T00:29:02.461Z,0
2018-07-23T00:30:02.717Z,0
2018-07-23T00:31:02.698Z,0
2018-07-23T00:32:02.709Z,0
2018-07-23T00:33:02.438Z,0
2018-07-23T00:34:02.446Z,0
2018-07-23T00:36:02.687Z,0
2018-07-23T00:37:02.434Z,0
2018-07-23T00:38:02.673Z,0
2018-07-23T00:39:02.673Z,0
2018-07-23T00:40:02.678Z,0
2018-07-23T00:41:02.679Z,0
2018-07-23T00:42:02.430Z,0
2018-07-23T00:43:02.665Z,0
2018-07-23T00:44:02.659Z,0
2018-07-23T00:45:02.656Z,0
2018-07-23T00:46:02.404Z,0
2018-07-23T00:47:02.651Z,0
2018-07-23T00:48:02.652Z,0
2018-07-23T00:49:02.660Z,0
2018-07-23T00:50:02.662Z,0
2018-07-23T00:51:02.645Z,0
2018-07-23T00:52:02.649Z,0
2018-07-23T00:53:02.643Z,0
2018-07-23T00:54:02.637Z,0
2018-07-23T00:55:02.632Z,0
2018-07-23T00:56:02.385Z,0
2018-07-23T00:57:02.122Z,0
2018-07-23T00:58:02.630Z,0
2018-07-23T00:59:02.622Z,0
2018-07-23T01:00:02.616Z,0
2018-07-23T01:01:02.611Z,0
2018-07-23T01:02:02.610Z,0
2018-07-23T01:03:02.612Z,0
2018-07-23T01:04:02.605Z,0
2018-07-23T01:05:02.100Z,0
2018-07-23T01:06:02.600Z,0
2018-07-23T01:07:02.354Z,0
2018-07-23T01:08:02.604Z,0
2018-07-23T01:09:02.596Z,0
2018-07-23T01:10:02.337Z,0
2018-07-23T01:11:02.588Z,0
2018-07-23T01:12:02.588Z,0
2018-07-23T01:13:02.583Z,0
2018-07-23T01:14:02.331Z,0
2018-07-23T01:15:02.324Z,0
2018-07-23T01:16:02.320Z,0
2018-07-23T01:17:02.572Z,0
2018-07-23T01:18:02.575Z,0
2018-07-23T01:19:02.573Z,0
2018-07-23T01:20:02.333Z,0
2018-07-23T01:21:02.324Z,0
2018-07-23T01:22:02.308Z,0
2018-07-23T01:23:02.554Z,0
2018-07-23T01:24:02.553Z,0
2018-07-23T01:25:02.551Z,0
2018-07-23T01:26:02.293Z,0
2018-07-23T01:27:02.542Z,0
2018-07-23T01:28:02.292Z,0
2018-07-23T01:29:02.293Z,0
2018-07-23T01:30:02.537Z,0
2018-07-23T01:31:02.535Z,0
2018-07-23T01:32:02.532Z,0
2018-07-23T01:33:02.529Z,0
2018-07-23T01:34:02.528Z,0
2018-07-23T01:35:02.020Z,0
2018-07-23T01:36:02.527Z,0
2018-07-23T01:37:02.528Z,0
2018-07-23T01:38:02.514Z,0
2018-07-23T01:39:02.515Z,0
2018-07-23T01:40:02.511Z,0
2018-07-23T01:41:02.007Z,0
2018-07-23T01:42:02.253Z,0
2018-07-23T01:43:02.511Z,0
2018-07-23T01:44:02.248Z,0
2018-07-23T01:45:01.993Z,0
2018-07-23T01:46:02.499Z,0
2018-07-23T01:47:02.490Z,0
2018-07-23T01:48:02.237Z,0
2018-07-23T01:49:02.241Z,0
2018-07-23T01:50:02.481Z,0
2018-07-23T01:51:02.481Z,0
2018-07-23T01:52:02.479Z,0
2018-07-23T01:53:02.485Z,0
2018-07-23T01:54:01.718Z,0
2018-07-23T01:55:02.219Z,0
2018-07-23T01:56:02.219Z,0
2018-07-23T01:57:02.467Z,0
2018-07-23T01:58:02.465Z,0
2018-07-23T01:59:02.460Z,0
2018-07-23T02:00:02.459Z,0
2018-07-23T02:01:02.456Z,0
2018-07-23T02:02:02.207Z,0
2018-07-23T02:03:02.448Z,0
2018-07-23T02:04:02.449Z,0
2018-07-23T02:05:02.456Z,0
2018-07-23T02:06:02.186Z,0
2018-07-23T02:07:02.446Z,0
2018-07-23T02:08:02.443Z,0
2018-07-23T02:09:01.932Z,0
2018-07-23T02:10:02.425Z,0
2018-07-23T02:11:02.174Z,0
2018-07-23T02:12:02.420Z,0
2018-07-23T02:13:02.426Z,0
2018-07-23T02:14:02.164Z,0
2018-07-23T02:15:02.427Z,0
2018-07-23T02:16:02.410Z,0
2018-07-23T02:17:02.410Z,0
2018-07-23T02:18:02.150Z,0
2018-07-23T02:19:01.906Z,0
2018-07-23T02:20:02.401Z,0
2018-07-23T02:21:02.399Z,0
2018-07-23T02:22:02.402Z,0
2018-07-23T02:23:01.884Z,0
2018-07-23T02:24:02.390Z,0
2018-07-23T02:25:02.390Z,0
2018-07-23T02:26:02.129Z,0
2018-07-23T02:27:02.141Z,0
2018-07-23T02:28:02.377Z,0
2018-07-23T02:29:01.870Z,0
2018-07-23T02:30:02.399Z,0
2018-07-23T02:31:02.377Z,0
2018-07-23T02:32:02.118Z,0
2018-07-23T02:33:02.370Z,0
2018-07-23T02:34:02.361Z,0
2018-07-23T02:35:02.103Z,0
2018-07-23T02:36:02.107Z,0
2018-07-23T02:37:02.440Z,0
2018-07-23T02:38:02.090Z,0
2018-07-23T02:39:02.350Z,0
2018-07-23T02:40:01.842Z,0
2018-07-23T02:41:02.108Z,0
2018-07-23T02:42:02.333Z,0
2018-07-23T02:43:02.080Z,0
2018-07-23T02:44:02.080Z,0
2018-07-23T02:45:02.330Z,0
2018-07-23T02:46:02.071Z,0
2018-07-23T02:47:02.070Z,0
2018-07-23T02:48:02.062Z,0
2018-07-23T02:49:02.064Z,0
2018-07-23T02:50:02.323Z,0
2018-07-23T02:51:02.308Z,0
2018-07-23T02:52:02.310Z,0
2018-07-23T02:53:02.298Z,0
2018-07-23T02:54:02.309Z,0
2018-07-23T02:55:01.787Z,0
2018-07-23T02:56:02.307Z,0
2018-07-23T02:57:02.281Z,0
2018-07-23T02:58:01.787Z,0
2018-07-23T02:59:02.273Z,0
2018-07-23T03:00:02.286Z,0
2018-07-23T03:01:02.267Z,5
2018-07-23T03:02:02.274Z,5
2018-07-23T03:03:02.275Z,5
2018-07-23T03:04:02.257Z,5
2018-07-23T03:05:02.259Z,5
2018-07-23T03:06:02.001Z,5
2018-07-23T03:07:01.999Z,5
2018-07-23T03:08:02.252Z,5
2018-07-23T03:09:02.009Z,5
2018-07-23T03:10:02.254Z,10
2018-07-23T03:11:02.237Z,10
2018-07-23T03:12:01.991Z,10
2018-07-23T03:13:01.986Z,10
2018-07-23T03:14:01.970Z,10
2018-07-23T03:15:02.223Z,10
2018-07-23T03:16:02.238Z,15
2018-07-23T03:17:02.232Z,15
2018-07-23T03:18:02.020Z,15
2018-07-23T03:19:02.229Z,15
2018-07-23T03:20:01.955Z,20
2018-07-23T03:21:01.993Z,20
2018-07-23T03:22:02.598Z,20
2018-07-23T03:23:02.198Z,25
2018-07-23T03:24:02.197Z,25
2018-07-23T03:25:02.344Z,25
2018-07-23T03:26:02.181Z,30
2018-07-23T03:27:02.183Z,30
2018-07-23T03:28:01.923Z,30
2018-07-23T03:29:02.163Z,35
2018-07-23T03:30:02.175Z,35
2018-07-23T03:31:01.911Z,40
2018-07-23T03:32:01.912Z,40
2018-07-23T03:33:01.650Z,40
2018-07-23T03:34:02.149Z,40
2018-07-23T03:35:02.149Z,40
2018-07-23T03:36:01.888Z,45
2018-07-23T03:37:01.891Z,45
2018-07-23T03:38:02.145Z,50
2018-07-23T03:39:02.132Z,50
2018-07-23T03:40:02.145Z,55
2018-07-23T03:41:01.878Z,55
2018-07-23T03:42:02.127Z,60
2018-07-23T03:43:02.119Z,65
2018-07-23T03:44:02.119Z,65
2018-07-23T03:45:02.117Z,70
2018-07-23T03:46:01.861Z,75
2018-07-23T03:47:02.098Z,75
2018-07-23T03:48:01.601Z,80
2018-07-23T03:49:02.098Z,80
2018-07-23T03:50:01.850Z,85
2018-07-23T03:51:01.583Z,85
2018-07-23T03:52:02.093Z,90
2018-07-23T03:53:02.082Z,95
2018-07-23T03:54:01.825Z,95
2018-07-23T03:55:01.831Z,100
2018-07-23T03:56:01.569Z,105
2018-07-23T03:57:02.070Z,110
2018-07-23T03:58:02.072Z,110
2018-07-23T03:59:02.059Z,115
2018-07-23T04:00:01.820Z,120
2018-07-23T04:01:02.058Z,125
2018-07-23T04:02:02.053Z,130
2018-07-23T04:03:01.800Z,130
2018-07-23T04:04:01.796Z,130
2018-07-23T04:05:01.547Z,135
2018-07-23T04:06:02.039Z,135
2018-07-23T04:07:02.034Z,140
2018-07-23T04:08:02.037Z,145
2018-07-23T04:09:02.034Z,145
2018-07-23T04:10:02.395Z,145
2018-07-23T04:11:02.301Z,150
2018-07-23T04:12:02.023Z,155
2018-07-23T04:13:01.521Z,155
2018-07-23T04:14:02.025Z,160
2018-07-23T04:15:02.022Z,160
2018-07-23T04:16:02.015Z,165
2018-07-23T04:17:01.763Z,165
2018-07-23T04:18:01.772Z,165
2018-07-23T04:19:01.763Z,170
2018-07-23T04:20:02.012Z,175
2018-07-23T04:21:02.007Z,180
2018-07-23T04:22:02.017Z,185
2018-07-23T04:23:02.005Z,185
2018-07-23T04:24:02.000Z,190
2018-07-23T04:25:01.750Z,190
2018-07-23T04:26:01.751Z,195
2018-07-23T04:27:02.004Z,200
2018-07-23T04:28:01.996Z,205
2018-07-23T04:29:02.000Z,215
2018-07-23T04:30:01.742Z,215
2018-07-23T04:31:02.006Z,225
2018-07-23T04:32:01.995Z,230
2018-07-23T04:33:01.488Z,240
2018-07-23T04:34:01.490Z,240
2018-07-23T04:35:01.743Z,250
2018-07-23T04:36:01.996Z,260
2018-07-23T04:37:01.743Z,270
2018-07-23T04:38:02.457Z,275
2018-07-23T04:39:02.002Z,290
2018-07-23T04:40:01.992Z,290
2018-07-23T04:41:01.741Z,295
2018-07-23T04:42:01.998Z,300
2018-07-23T04:43:02.000Z,310
2018-07-23T04:44:01.777Z,320
2018-07-23T04:45:01.751Z,330
2018-07-23T04:46:02.009Z,325
2018-07-23T04:47:01.754Z,335
2018-07-23T04:48:01.761Z,340
2018-07-23T04:49:01.500Z,340
2018-07-23T04:50:02.004Z,350
2018-07-23T04:51:01.757Z,355
2018-07-23T04:52:02.037Z,360
2018-07-23T04:53:02.014Z,370
2018-07-23T04:54:02.014Z,375
2018-07-23T04:55:01.263Z,380
2018-07-23T04:56:02.023Z,385
2018-07-23T04:57:02.016Z,395
2018-07-23T04:58:02.040Z,400
2018-07-23T04:59:01.783Z,405
2018-07-23T05:00:01.788Z,410
2018-07-23T05:01:02.041Z,420
2018-07-23T05:02:02.046Z,430
2018-07-23T05:03:02.045Z,435
2018-07-23T05:04:01.805Z,445
2018-07-23T05:05:01.806Z,450
2018-07-23T05:06:02.072Z,455
2018-07-23T05:07:02.063Z,465
2018-07-23T05:08:02.075Z,475
2018-07-23T05:09:02.130Z,475
2018-07-23T05:10:02.079Z,490
2018-07-23T05:11:02.089Z,505
2018-07-23T05:12:02.104Z,515
2018-07-23T05:13:02.091Z,520
2018-07-23T05:14:01.845Z,525
2018-07-23T05:15:01.849Z,535
2018-07-23T05:16:01.777Z,540
2018-07-23T05:17:01.617Z,550
2018-07-23T05:18:02.119Z,560
2018-07-23T05:19:01.874Z,550
2018-07-23T05:20:02.137Z,550
2018-07-23T05:21:02.146Z,550
2018-07-23T05:22:01.895Z,550
2018-07-23T05:23:01.953Z,555
2018-07-23T05:24:02.427Z,565
2018-07-23T05:25:02.170Z,565
2018-07-23T05:26:01.943Z,575
2018-07-23T05:27:02.206Z,590
2018-07-23T05:28:02.195Z,590
2018-07-23T05:29:01.946Z,595
2018-07-23T05:30:02.201Z,610
2018-07-23T05:31:02.208Z,625
2018-07-23T05:32:02.359Z,630
2018-07-23T05:33:02.227Z,645
2018-07-23T05:34:02.235Z,655
2018-07-23T05:35:02.247Z,665
2018-07-23T05:36:02.007Z,685
2018-07-23T05:37:02.012Z,700
2018-07-23T05:38:02.274Z,705
2018-07-23T05:39:02.337Z,730
2018-07-23T05:40:01.795Z,745
2018-07-23T05:41:01.792Z,760
2018-07-23T05:42:02.304Z,780
2018-07-23T05:43:02.321Z,790
2018-07-23T05:44:02.340Z,800
2018-07-23T05:45:02.330Z,820
2018-07-23T05:46:02.092Z,820
2018-07-23T05:47:02.352Z,835
2018-07-23T05:48:02.106Z,845
2018-07-23T05:49:02.372Z,855
2018-07-23T05:50:02.379Z,870
2018-07-23T05:51:02.159Z,885
2018-07-23T05:52:02.407Z,900
2018-07-23T05:53:02.412Z,930
2018-07-23T05:54:02.420Z,960
2018-07-23T05:55:02.429Z,980
2018-07-23T05:56:02.186Z,990
2018-07-23T05:57:01.950Z,990
2018-07-23T05:58:02.468Z,975
2018-07-23T05:59:02.605Z,980
2018-07-23T06:00:01.997Z,990
2018-07-23T06:01:02.252Z,995
2018-07-23T06:02:02.504Z,1000
2018-07-23T06:03:02.531Z,995
2018-07-23T06:04:02.535Z,1005
2018-07-23T06:05:02.032Z,1015
2018-07-23T06:06:02.552Z,1010
2018-07-23T06:07:03.636Z,1015
2018-07-23T06:08:02.321Z,1015
2018-07-23T06:09:02.579Z,1015
2018-07-23T06:10:02.338Z,1025
2018-07-23T06:11:02.600Z,1035
2018-07-23T06:12:02.660Z,1040
2018-07-23T06:13:02.442Z,1040
2018-07-23T06:14:02.137Z,1055
2018-07-23T06:15:02.662Z,1085
2018-07-23T06:16:02.660Z,1110
2018-07-23T06:17:02.435Z,1115
2018-07-23T06:18:02.689Z,1120
2018-07-23T06:19:02.449Z,1140
2018-07-23T06:20:02.729Z,1165
2018-07-23T06:21:02.723Z,1175
2018-07-23T06:22:02.235Z,1190
2018-07-23T06:23:02.752Z,1205
2018-07-23T06:24:02.267Z,1205
2018-07-23T06:25:02.569Z,1230
2018-07-23T06:26:02.536Z,1245
2018-07-23T06:27:02.810Z,1270
2018-07-23T06:28:02.825Z,1285
2018-07-23T06:29:02.833Z,1300
2018-07-23T06:30:03.005Z,1300
2018-07-23T06:31:02.627Z,1325
2018-07-23T06:32:02.615Z,1345
2018-07-23T06:33:02.894Z,1340
2018-07-23T06:34:03.126Z,1360
2018-07-23T06:35:02.654Z,1370
2018-07-23T06:36:02.943Z,1375
2018-07-23T06:37:02.931Z,1360
2018-07-23T06:38:02.701Z,1380
2018-07-23T06:39:03.520Z,1390
2018-07-23T06:40:02.979Z,1390
2018-07-23T06:41:02.992Z,1390
2018-07-23T06:43:07.313Z,1385
2018-07-23T06:45:02.806Z,1405
2018-07-23T06:46:03.085Z,1425
2018-07-23T06:47:02.835Z,1450
2018-07-23T06:48:03.107Z,1500
2018-07-23T06:49:02.861Z,1520
2018-07-23T06:50:03.137Z,1530
2018-07-23T06:51:02.655Z,1550
2018-07-23T06:52:02.919Z,1560
2018-07-23T06:53:02.929Z,1555
2018-07-23T06:54:03.391Z,1570
2018-07-23T06:55:03.228Z,1585
2018-07-23T06:56:02.976Z,1595
2018-07-23T06:57:02.749Z,1595
2018-07-23T06:58:03.270Z,1600
2018-07-23T06:59:03.282Z,1595
2018-07-23T07:00:03.042Z,1615
2018-07-23T07:01:02.811Z,1620
2018-07-23T07:02:03.080Z,1615
2018-07-23T07:03:03.353Z,1630
2018-07-23T07:04:03.375Z,1660
2018-07-23T07:05:03.384Z,1675
2018-07-23T07:06:03.400Z,1695
2018-07-23T07:07:03.167Z,1705
2018-07-23T07:08:03.444Z,1730
2018-07-23T07:09:03.453Z,1745
2018-07-23T07:10:03.227Z,1760
2018-07-23T07:11:03.984Z,1790
2018-07-23T07:12:03.542Z,1785
2018-07-23T07:13:03.545Z,1310
2018-07-23T07:14:03.287Z,1330
2018-07-23T07:15:03.317Z,1310
2018-07-23T07:16:03.092Z,1320
2018-07-23T07:17:03.104Z,1325
2018-07-23T07:18:03.621Z,1345
2018-07-23T07:19:03.893Z,1355
2018-07-23T07:20:03.968Z,1370
2018-07-23T07:21:03.678Z,1370
2018-07-23T07:22:03.686Z,1370
2018-07-23T07:23:03.717Z,1385
2018-07-23T07:24:03.477Z,1415
2018-07-23T07:25:03.493Z,1440
2018-07-23T07:26:03.803Z,1440
2018-07-23T07:27:03.533Z,1440
2018-07-23T07:28:03.794Z,1430
2018-07-23T07:29:03.564Z,1435
2018-07-23T07:30:03.862Z,1465
2018-07-23T07:31:03.841Z,1480
2018-07-23T07:32:03.638Z,1505
2018-07-23T07:33:03.878Z,1515
2018-07-23T07:34:03.910Z,1510
2018-07-23T07:35:04.037Z,1485
2018-07-23T07:36:03.970Z,1505
2018-07-23T07:37:03.945Z,1495
2018-07-23T07:38:04.388Z,1510
2018-07-23T07:39:03.991Z,1510
2018-07-23T07:40:03.518Z,1550
2018-07-23T07:41:04.013Z,1560
2018-07-23T07:42:03.776Z,1580
2018-07-23T07:43:03.554Z,1585
2018-07-23T07:44:03.818Z,1595
2018-07-23T07:45:03.827Z,1595
2018-07-23T07:46:03.611Z,1600
2018-07-23T07:47:03.864Z,1605
2018-07-23T07:48:03.877Z,1615
2018-07-23T07:49:04.394Z,1640
2018-07-23T07:50:03.908Z,1640
2018-07-23T07:51:03.685Z,1635
2018-07-23T07:52:03.937Z,1635
2018-07-23T07:53:03.734Z,1635
2018-07-23T07:54:03.976Z,1650
2018-07-23T07:55:04.235Z,1680
2018-07-23T07:56:04.004Z,1700
2018-07-23T07:57:04.024Z,1700
2018-07-23T07:58:04.090Z,1695
2018-07-23T07:59:04.068Z,1705
2018-07-23T08:00:04.341Z,1710
2018-07-23T08:01:03.846Z,1770
2018-07-23T08:02:03.848Z,1800
2018-07-23T08:03:04.382Z,1830
2018-07-23T08:04:04.392Z,1830
2018-07-23T08:05:04.171Z,1825
2018-07-23T08:06:04.172Z,1795
2018-07-23T08:07:04.298Z,1780
2018-07-23T08:08:04.188Z,1760
2018-07-23T08:09:03.972Z,1740
2018-07-23T08:10:04.497Z,1770
2018-07-23T08:11:03.993Z,1790
2018-07-23T08:12:04.264Z,1795
2018-07-23T08:13:04.038Z,1805
2018-07-23T08:14:04.279Z,1810
2018-07-23T08:15:04.048Z,1825
2018-07-23T08:16:04.775Z,1820
2018-07-23T08:17:04.327Z,1790
2018-07-23T08:18:04.415Z,1780
2018-07-23T08:19:04.103Z,1785
2018-07-23T08:20:04.901Z,1810
2018-07-23T08:21:04.406Z,1815
2018-07-23T08:22:04.430Z,1845
2018-07-23T08:23:04.688Z,1870
2018-07-23T08:24:04.190Z,1895
2018-07-23T08:25:04.504Z,1880
2018-07-23T08:26:04.464Z,1915
2018-07-23T08:27:04.733Z,1915
2018-07-23T08:28:04.758Z,1915
2018-07-23T08:29:04.510Z,1905
2018-07-23T08:30:04.034Z,1935
2018-07-23T08:31:04.288Z,1935
2018-07-23T08:32:05.904Z,1930
2018-07-23T08:33:04.069Z,1935
2018-07-23T08:34:04.602Z,1935
2018-07-23T08:35:04.864Z,1945
2018-07-23T08:36:04.612Z,1945
2018-07-23T08:37:04.712Z,1970
2018-07-23T08:38:04.905Z,2000
2018-07-23T08:39:04.407Z,2015
2018-07-23T08:40:04.929Z,2025
2018-07-23T08:41:05.004Z,2025
2018-07-23T08:42:04.759Z,2000
2018-07-23T08:43:05.238Z,1995
2018-07-23T08:44:04.996Z,1990
2018-07-23T08:45:05.383Z,1995
2018-07-23T08:46:05.029Z,2030
2018-07-23T08:47:05.033Z,2050
2018-07-23T08:48:05.049Z,2055
2018-07-23T08:49:04.811Z,2050
2018-07-23T08:50:04.822Z,2040
2018-07-23T08:51:05.335Z,1990
2018-07-23T08:52:04.615Z,1965
2018-07-23T08:53:04.895Z,1940
2018-07-23T08:54:05.164Z,1925
2018-07-23T08:55:04.663Z,1805
2018-07-23T08:56:05.247Z,1000
2018-07-23T08:57:04.940Z,285
2018-07-23T08:58:04.934Z,235
2018-07-23T08:59:04.699Z,230
2018-07-23T09:00:05.233Z,225
2018-07-23T09:01:04.986Z,225
2018-07-23T09:02:05.248Z,225
2018-07-23T09:03:05.251Z,225
2018-07-23T09:04:05.688Z,225
2018-07-23T09:06:05.036Z,220
2018-07-23T09:07:05.043Z,220
2018-07-23T09:08:04.821Z,220
2018-07-23T09:09:05.355Z,220
2018-07-23T09:10:05.325Z,215
2018-07-23T09:11:05.092Z,220
2018-07-23T09:12:05.364Z,215
2018-07-23T09:13:05.371Z,215
2018-07-23T09:14:05.355Z,215
2018-07-23T09:15:05.371Z,215
2018-07-23T09:16:04.869Z,215
2018-07-23T09:17:05.405Z,210
2018-07-23T09:18:05.402Z,210
2018-07-23T09:19:05.404Z,210
2018-07-23T09:20:05.165Z,210
2018-07-23T09:21:05.440Z,210
2018-07-23T09:22:05.471Z,205
2018-07-23T09:23:05.678Z,205
2018-07-23T09:24:04.927Z,210
2018-07-23T09:25:05.438Z,200
2018-07-23T09:26:05.447Z,200
2018-07-23T09:27:05.218Z,200
2018-07-23T09:28:05.255Z,200
2018-07-23T09:29:04.972Z,200
2018-07-23T09:30:05.226Z,200
2018-07-23T09:31:05.493Z,200
2018-07-23T09:32:05.672Z,200
2018-07-23T09:33:05.479Z,195
2018-07-23T09:34:05.231Z,195
2018-07-23T09:35:05.000Z,195
2018-07-23T09:36:04.990Z,200
2018-07-23T09:37:05.313Z,200
2018-07-23T09:38:05.498Z,200
2018-07-23T09:39:05.506Z,195
2018-07-23T09:40:05.524Z,195
2018-07-23T09:41:05.268Z,195
2018-07-23T09:42:05.260Z,195
2018-07-23T09:43:05.283Z,195
2018-07-23T09:44:05.528Z,190
2018-07-23T09:45:05.276Z,190
2018-07-23T09:46:05.275Z,190
2018-07-23T09:47:05.325Z,190
2018-07-23T09:48:05.566Z,190
2018-07-23T09:49:05.544Z,190
2018-07-23T09:50:05.290Z,185
2018-07-23T09:51:05.299Z,185
2018-07-23T09:52:05.569Z,185
2018-07-23T09:53:05.581Z,185
2018-07-23T09:54:05.567Z,185
2018-07-23T09:55:05.564Z,185
2018-07-23T09:56:05.570Z,185
2018-07-23T09:57:05.589Z,185
2018-07-23T09:58:05.574Z,185
2018-07-23T09:59:05.581Z,185
2018-07-23T10:00:05.074Z,185
2018-07-23T10:01:05.327Z,180
2018-07-23T10:02:05.353Z,180
2018-07-23T10:03:06.086Z,180
2018-07-23T10:04:05.613Z,180
2018-07-23T10:05:05.638Z,180
2018-07-23T10:06:05.605Z,180
2018-07-23T10:07:05.577Z,180
2018-07-23T10:08:05.373Z,175
2018-07-23T10:09:04.881Z,175
2018-07-23T10:10:05.361Z,175
2018-07-23T10:11:05.578Z,175
2018-07-23T10:12:05.387Z,175
2018-07-23T10:13:05.381Z,175
2018-07-23T10:14:05.386Z,175
2018-07-23T10:15:05.372Z,175
2018-07-23T10:16:05.375Z,175
2018-07-23T10:17:05.383Z,175
2018-07-23T10:18:05.430Z,200
2018-07-23T10:19:05.133Z,210
2018-07-23T10:20:05.640Z,210
2018-07-23T10:21:05.144Z,205
2018-07-23T10:22:05.192Z,205
2018-07-23T10:23:05.650Z,205
2018-07-23T10:24:05.651Z,205
2018-07-23T10:25:05.669Z,205
2018-07-23T10:26:05.436Z,205
2018-07-23T10:27:05.417Z,205
2018-07-23T10:28:05.662Z,205
2018-07-23T10:29:05.664Z,205
2018-07-23T10:30:05.685Z,205
2018-07-23T10:31:05.686Z,205
2018-07-23T10:32:05.737Z,205
2018-07-23T10:33:05.690Z,200
2018-07-23T10:34:05.687Z,200
2018-07-23T10:35:05.557Z,200
2018-07-23T10:36:05.698Z,200
2018-07-23T10:37:05.445Z,200
2018-07-23T10:38:05.719Z,200
2018-07-23T10:39:05.706Z,200
2018-07-23T10:40:05.709Z,200
2018-07-23T10:41:05.526Z,200
2018-07-23T10:42:05.453Z,200
2018-07-23T10:43:05.484Z,200
2018-07-23T10:44:05.467Z,200
2018-07-23T10:45:05.477Z,200
2018-07-23T10:46:05.720Z,200
2018-07-23T10:47:05.487Z,200
2018-07-23T10:48:05.756Z,195
2018-07-23T10:49:05.510Z,195
2018-07-23T10:50:05.484Z,200
2018-07-23T10:51:05.805Z,200
2018-07-23T10:52:05.747Z,200
2018-07-23T10:53:05.495Z,195
2018-07-23T10:54:05.794Z,195
2018-07-23T10:55:05.494Z,195
2018-07-23T10:56:05.745Z,195
2018-07-23T10:57:05.808Z,195
2018-07-23T10:58:05.506Z,195
2018-07-23T10:59:05.510Z,195
2018-07-23T11:00:05.767Z,195
2018-07-23T11:01:05.523Z,195
2018-07-23T11:02:05.779Z,195
2018-07-23T11:03:05.777Z,195
2018-07-23T11:04:05.773Z,195
2018-07-23T11:05:05.775Z,195
2018-07-23T11:06:05.534Z,195
2018-07-23T11:07:05.792Z,190
2018-07-23T11:08:05.277Z,190
2018-07-23T11:09:05.541Z,190
2018-07-23T11:10:05.828Z,190
2018-07-23T11:11:05.789Z,190
2018-07-23T11:12:05.565Z,190
2018-07-23T11:13:05.798Z,190
2018-07-23T11:14:05.557Z,190
2018-07-23T11:15:05.554Z,190
2018-07-23T11:16:05.300Z,190
2018-07-23T11:17:05.059Z,190
2018-07-23T11:18:05.818Z,190
2018-07-23T11:19:05.855Z,190
2018-07-23T11:20:05.572Z,185
2018-07-23T11:21:05.824Z,190
2018-07-23T11:22:05.845Z,190
2018-07-23T11:23:05.579Z,190
2018-07-23T11:24:06.143Z,190
2018-07-23T11:25:42.584Z,190
2018-07-23T11:26:05.585Z,190
2018-07-23T11:27:06.116Z,190
2018-07-23T11:28:05.852Z,190
2018-07-23T11:29:05.844Z,185
2018-07-23T11:30:05.855Z,185
2018-07-23T11:31:05.863Z,185
2018-07-23T11:32:05.804Z,185
2018-07-23T11:33:05.607Z,185
2018-07-23T11:34:05.620Z,185
2018-07-23T11:35:05.867Z,185
2018-07-23T11:36:05.867Z,185
2018-07-23T11:37:05.367Z,185
2018-07-23T11:38:05.632Z,185
2018-07-23T11:39:05.880Z,185
2018-07-23T11:40:05.624Z,185
2018-07-23T11:41:05.832Z,185
2018-07-23T11:42:05.880Z,185
2018-07-23T11:43:05.376Z,185
2018-07-23T11:44:05.892Z,185
2018-07-23T11:45:05.903Z,180
2018-07-23T11:46:05.925Z,180
2018-07-23T11:47:05.936Z,180
2018-07-23T11:48:05.923Z,180
2018-07-23T11:49:05.646Z,180
2018-07-23T11:50:06.138Z,180
2018-07-23T11:51:05.676Z,180
2018-07-23T11:52:05.684Z,180
2018-07-23T11:53:05.663Z,180
2018-07-23T11:54:05.929Z,185
2018-07-23T11:55:05.913Z,185
2018-07-23T11:56:05.661Z,185
2018-07-23T11:57:06.422Z,185
2018-07-23T11:58:05.919Z,180
2018-07-23T11:59:05.707Z,180
2018-07-23T12:00:05.938Z,180
2018-07-23T12:01:05.679Z,180
2018-07-23T12:02:05.682Z,180
2018-07-23T12:03:05.430Z,180
2018-07-23T12:04:10.407Z,180
2018-07-23T12:05:05.693Z,180
2018-07-23T12:06:05.944Z,180
2018-07-23T12:07:05.440Z,180
2018-07-23T12:08:05.701Z,180
2018-07-23T12:09:05.965Z,180
2018-07-23T12:10:05.453Z,180
2018-07-23T12:11:05.963Z,180
2018-07-23T12:12:06.054Z,180
2018-07-23T12:13:05.710Z,180
2018-07-23T12:14:06.009Z,180
2018-07-23T12:15:05.720Z,180
2018-07-23T12:16:05.465Z,180
2018-07-23T12:17:05.751Z,180
2018-07-23T12:18:05.732Z,180
2018-07-23T12:19:05.733Z,180
2018-07-23T12:20:05.988Z,180
2018-07-23T12:21:05.749Z,180
2018-07-23T12:22:05.739Z,180
2018-07-23T12:23:05.736Z,180
2018-07-23T12:24:05.527Z,180
2018-07-23T12:25:05.757Z,180
2018-07-23T12:26:05.674Z,180
2018-07-23T12:27:06.002Z,180
2018-07-23T12:28:05.759Z,180
2018-07-23T12:29:06.009Z,180
2018-07-23T12:30:06.014Z,180
2018-07-23T12:31:05.273Z,180
2018-07-23T12:32:06.028Z,175
2018-07-23T12:33:06.031Z,175
2018-07-23T12:34:05.773Z,175
2018-07-23T12:35:05.281Z,175
2018-07-23T12:36:05.829Z,175
2018-07-23T12:37:06.035Z,175
2018-07-23T12:38:05.531Z,175
2018-07-23T12:39:06.054Z,175
2018-07-23T12:40:06.625Z,175
2018-07-23T12:41:05.543Z,175
2018-07-23T12:42:05.796Z,175
2018-07-23T12:43:06.046Z,175
2018-07-23T12:44:05.801Z,175
2018-07-23T12:45:05.819Z,175
2018-07-23T12:46:05.823Z,175
2018-07-23T12:47:06.246Z,175
2018-07-23T12:48:05.824Z,175
2018-07-23T12:49:05.814Z,175
2018-07-23T12:50:05.850Z,175
2018-07-23T12:51:05.815Z,175
2018-07-23T12:52:06.072Z,175
2018-07-23T12:53:06.102Z,175
2018-07-23T12:54:05.838Z,175
2018-07-23T12:55:06.140Z,175
2018-07-23T12:56:06.093Z,175
2018-07-23T12:57:06.118Z,175
2018-07-23T12:58:05.875Z,175
2018-07-23T12:59:05.856Z,180
2018-07-23T13:00:06.164Z,175
2018-07-23T13:01:06.365Z,175
2018-07-23T13:02:05.809Z,180
2018-07-23T13:03:05.871Z,175
2018-07-23T13:04:06.105Z,175
2018-07-23T13:05:06.114Z,175
2018-07-23T13:06:06.126Z,175
2018-07-23T13:07:05.856Z,175
2018-07-23T13:08:06.187Z,175
2018-07-23T13:09:05.884Z,175
2018-07-23T13:10:06.134Z,175
2018-07-23T13:11:06.137Z,175
2018-07-23T13:12:06.143Z,175
2018-07-23T13:13:05.875Z,175
2018-07-23T13:14:05.629Z,175
2018-07-23T13:15:06.064Z,175
2018-07-23T13:16:06.147Z,180
2018-07-23T13:17:06.141Z,180
2018-07-23T13:18:05.897Z,180
2018-07-23T13:19:06.026Z,180
2018-07-23T13:20:05.647Z,180
2018-07-23T13:21:05.918Z,180
2018-07-23T13:22:06.174Z,180
2018-07-23T13:23:05.907Z,180
2018-07-23T13:24:06.199Z,180
2018-07-23T13:25:06.165Z,180
2018-07-23T13:26:05.933Z,180
2018-07-23T13:27:05.924Z,180
2018-07-23T13:28:05.942Z,180
2018-07-23T13:29:05.937Z,180
2018-07-23T13:30:05.425Z,175
2018-07-23T13:31:05.937Z,175
2018-07-23T13:32:06.185Z,175
2018-07-23T13:33:05.936Z,175
2018-07-23T13:34:05.939Z,175
2018-07-23T13:35:05.945Z,175
2018-07-23T13:36:05.954Z,175
2018-07-23T13:37:05.959Z,175
2018-07-23T13:38:06.311Z,175
2018-07-23T13:39:06.227Z,175
2018-07-23T13:40:05.962Z,175
2018-07-23T13:41:05.984Z,175
2018-07-23T13:42:05.730Z,175
2018-07-23T13:43:06.240Z,175
2018-07-23T13:44:05.988Z,175
2018-07-23T13:45:05.977Z,175
2018-07-23T13:46:05.992Z,175
2018-07-23T13:47:06.233Z,175
2018-07-23T13:48:06.247Z,175
2018-07-23T13:49:06.001Z,175
2018-07-23T13:50:06.005Z,175
2018-07-23T13:51:05.997Z,170
2018-07-23T13:52:09.308Z,170
2018-07-23T13:53:06.005Z,170
2018-07-23T13:54:06.013Z,170
2018-07-23T13:55:06.262Z,170
2018-07-23T13:56:05.755Z,170
2018-07-23T13:57:06.029Z,170
2018-07-23T13:58:06.591Z,170
2018-07-23T13:59:06.031Z,170